Time;durP1;ratioP1;P1;durP2;ratioP2;P2;SDS_P1;SDS_P2;PMS_P1;PMS_P2;Temp;Humidity;BMP_temperature;BMP_pressure;BME280_temperature;BME280_humidity;BME280_pressure;Samples;Min_cycle;Max_cycle;Signal;HPM_P1;HPM_P2
2022/07/08 04:55:48;;;;;;;;;3.00;3.00;;;;;16.85;54.89;103025.25;2811586;22;46436;-83
2022/07/08 04:56:59;;;;;;;;;5.25;3.50;;;;;16.86;54.67;103017.28;2407767;28;45496;-83
2022/07/08 04:58:09;;;;;;;;;3.75;3.00;;;;;16.87;54.72;103020.78;2414244;28;46159;-83
2022/07/08 04:59:21;;;;;;;;;4.25;2.75;;;;;16.89;54.64;103024.28;2423862;28;45468;-82
2022/07/08 05:00:33;;;;;;;;;5.50;2.00;;;;;16.90;54.67;103023.38;2419284;28;45407;-83
2022/07/08 05:01:43;;;;;;;;;4.50;2.50;;;;;16.92;54.95;103020.66;2411185;28;45459;-83
2022/07/08 05:02:54;;;;;;;;;4.75;2.00;;;;;16.94;54.67;103029.50;2420617;28;45263;-83
2022/07/08 05:04:04;;;;;;;;;4.00;2.00;;;;;16.96;54.69;103023.22;2415307;28;45446;-83
2022/07/08 05:05:14;;;;;;;;;4.00;2.75;;;;;16.96;54.71;103025.88;2419778;28;45229;-83
2022/07/08 05:06:25;;;;;;;;;4.00;3.00;;;;;16.97;54.27;103026.75;2421556;28;45158;-83
2022/07/08 05:07:35;;;;;;;;;3.75;3.00;;;;;16.97;54.41;103026.75;2419952;28;46688;-83
2022/07/08 05:08:45;;;;;;;;;3.00;3.00;;;;;16.98;54.58;103025.84;2416854;28;45121;-83
2022/07/08 05:09:56;;;;;;;;;6.25;4.50;;;;;16.97;54.38;103024.97;2412192;28;45341;-80
2022/07/08 05:11:06;;;;;;;;;3.50;3.00;;;;;16.98;54.22;103021.41;2411784;28;45290;-81
2022/07/08 05:12:16;;;;;;;;;3.50;3.00;;;;;16.99;54.51;103024.94;2404688;28;46211;-81
2022/07/08 05:13:27;;;;;;;;;3.00;2.00;;;;;16.99;54.48;103040.88;2407676;28;45427;-81
2022/07/08 05:14:37;;;;;;;;;6.50;4.00;;;;;16.98;54.74;103025.84;2408978;28;47202;-80
2022/07/08 05:15:47;;;;;;;;;4.00;4.00;;;;;16.97;54.37;103037.38;2404443;28;45466;-80
2022/07/08 05:16:58;;;;;;;;;4.00;4.00;;;;;16.95;54.56;103036.53;2413985;28;46507;-80
2022/07/08 05:18:08;;;;;;;;;5.00;4.00;;;;;16.94;54.60;103040.13;2412516;28;44707;-80
2022/07/08 05:19:18;;;;;;;;;3.00;3.00;;;;;16.91;54.72;103037.53;2415417;28;45543;-81
2022/07/08 05:20:30;;;;;;;;;3.00;3.00;;;;;16.89;55.13;103044.66;2416603;28;45431;-81
2022/07/08 05:21:40;;;;;;;;;4.25;2.50;;;;;16.88;54.98;103041.13;2418758;28;46110;-81
2022/07/08 05:22:51;;;;;;;;;3.50;3.00;;;;;16.93;54.75;103036.59;2417763;28;44793;-81
2022/07/08 05:24:02;;;;;;;;;4.00;3.00;;;;;16.95;54.95;103039.19;2414593;28;46448;-81
2022/07/08 05:25:13;;;;;;;;;3.00;3.00;;;;;16.96;54.51;103047.13;2405148;28;45430;-80
2022/07/08 05:26:23;;;;;;;;;4.75;4.00;;;;;16.94;54.92;103054.25;2404340;28;46560;-81
2022/07/08 05:27:34;;;;;;;;;3.00;3.00;;;;;16.91;54.81;103048.16;2410477;28;44720;-80
2022/07/08 05:28:44;;;;;;;;;5.75;3.00;;;;;16.87;54.79;103050.88;2399608;28;48378;-81
2022/07/08 05:29:55;;;;;;;;;4.00;4.00;;;;;16.88;54.62;103046.44;2404610;28;45456;-81
2022/07/08 05:31:05;;;;;;;;;4.25;2.50;;;;;16.86;54.77;103046.50;2417039;28;46261;-81
2022/07/08 05:32:16;;;;;;;;;4.00;3.00;;;;;16.84;54.81;103044.78;2417954;28;45233;-81
2022/07/08 05:33:26;;;;;;;;;3.25;3.00;;;;;16.84;55.46;103039.47;2419543;28;45427;-81
2022/07/08 05:34:38;;;;;;;;;3.00;2.00;;;;;16.86;55.28;103042.94;2414717;28;45312;-80
2022/07/08 05:35:48;;;;;;;;;3.25;3.25;;;;;16.86;55.22;103042.94;2411604;28;45509;-81
2022/07/08 05:37:00;;;;;;;;;7.00;4.00;;;;;16.87;54.96;103048.22;2412210;28;45406;-81
2022/07/08 05:38:11;;;;;;;;;5.25;3.25;;;;;16.87;54.84;103039.38;2411814;28;45821;-81
2022/07/08 05:39:21;;;;;;;;;4.00;4.00;;;;;16.90;54.66;103043.75;2411308;28;45576;-81
2022/07/08 05:40:32;;;;;;;;;6.50;4.00;;;;;16.90;54.85;103043.75;2418931;28;46496;-81
2022/07/08 05:41:42;;;;;;;;;3.00;2.50;;;;;16.91;54.78;103041.06;2419413;28;44779;-81
2022/07/08 05:42:53;;;;;;;;;7.50;3.00;;;;;16.96;54.83;103048.94;2412828;28;46360;-81
2022/07/08 05:44:03;;;;;;;;;4.00;4.00;;;;;16.98;54.85;103044.44;2413256;28;45343;-81
2022/07/08 05:45:14;;;;;;;;;3.75;3.50;;;;;16.99;54.65;103043.53;2412076;28;46184;-81
2022/07/08 05:46:24;;;;;;;;;3.75;3.25;;;;;17.01;54.74;103044.38;2414586;28;45174;-81
2022/07/08 05:47:34;;;;;;;;;6.00;4.00;;;;;17.03;54.94;103047.88;2413638;28;45225;-80
2022/07/08 05:48:45;;;;;;;;;5.00;3.25;;;;;17.04;54.75;103046.94;2411885;28;45336;-81
2022/07/08 05:49:55;;;;;;;;;4.50;2.50;;;;;17.05;54.77;103043.41;2411827;28;45567;-80
2022/07/08 05:51:05;;;;;;;;;5.00;3.00;;;;;17.07;54.74;103052.19;2411705;28;45623;-80
2022/07/08 05:52:16;;;;;;;;;3.25;2.50;;;;;17.06;54.69;103045.13;2410433;28;45274;-80
2022/07/08 05:53:26;;;;;;;;;3.00;3.00;;;;;17.08;54.89;103042.44;2409538;28;45236;-81
2022/07/08 05:54:38;;;;;;;;;2.25;2.25;;;;;17.06;54.63;103038.97;2415721;28;46357;-81
2022/07/08 05:55:48;;;;;;;;;3.75;3.75;;;;;17.06;54.63;103036.31;2412080;28;44775;-80
2022/07/08 05:56:59;;;;;;;;;3.75;2.75;;;;;17.06;55.03;103039.81;2411956;28;45417;-80
2022/07/08 05:58:10;;;;;;;;;3.50;3.25;;;;;17.09;55.00;103034.44;2412570;28;44615;-81
2022/07/08 05:59:20;;;;;;;;;5.75;3.25;;;;;17.15;55.07;103040.50;2411373;28;45635;-80
2022/07/08 06:00:31;;;;;;;;;4.75;3.00;;;;;17.20;54.97;103036.88;2412479;28;45391;-80
2022/07/08 06:01:41;;;;;;;;;6.25;3.00;;;;;17.26;55.14;103037.63;2411001;28;45325;-80
2022/07/08 06:02:51;;;;;;;;;4.00;3.00;;;;;17.36;54.77;103041.78;2411784;28;45475;-81
2022/07/08 06:04:02;;;;;;;;;5.75;4.75;;;;;17.43;54.76;103039.88;2412617;28;46198;-81
2022/07/08 06:05:12;;;;;;;;;3.25;3.25;;;;;17.50;54.65;103037.91;2421815;28;45205;-81
2022/07/08 06:06:22;;;;;;;;;3.00;3.00;;;;;17.54;54.85;103040.47;2411660;28;45539;-81
2022/07/08 06:07:33;;;;;;;;;6.75;3.75;;;;;17.60;54.18;103039.44;2413010;28;45451;-81
2022/07/08 06:08:43;;;;;;;;;3.00;3.00;;;;;17.62;54.32;103048.25;2414812;28;45307;-80
2022/07/08 06:09:54;;;;;;;;;5.00;5.00;;;;;17.64;54.10;103050.84;2411069;28;45227;-80
2022/07/08 06:11:04;;;;;;;;;3.75;3.75;;;;;17.66;54.31;103041.91;2406408;28;45444;-80
2022/07/08 06:12:14;;;;;;;;;4.25;3.50;;;;;17.70;53.90;103036.53;2412023;28;45550;-81
2022/07/08 06:13:25;;;;;;;;;4.00;3.00;;;;;17.72;54.46;103038.22;2411405;28;46297;-81
2022/07/08 06:14:35;;;;;;;;;2.25;2.00;;;;;17.76;54.32;103042.53;2412458;28;45233;-80
2022/07/08 06:15:45;;;;;;;;;4.00;4.00;;;;;17.81;54.03;103039.75;2411736;28;45265;-80
2022/07/08 06:16:56;;;;;;;;;5.00;3.50;;;;;17.85;53.96;103037.91;2412393;28;45292;-80
2022/07/08 06:18:06;;;;;;;;;4.75;3.25;;;;;17.86;53.34;103037.84;2417747;28;45208;-81
2022/07/08 06:19:17;;;;;;;;;3.00;3.00;;;;;17.87;53.22;103038.72;2418308;28;44620;-81
2022/07/08 06:20:27;;;;;;;;;5.75;3.00;;;;;17.86;53.51;103042.28;2412166;28;45400;-82
2022/07/08 06:21:37;;;;;;;;;3.75;3.00;;;;;17.88;53.70;103051.97;2412297;28;45260;-81
2022/07/08 06:22:50;;;;;;;;;5.00;3.25;;;;;17.91;53.63;103048.34;2401027;28;47262;-81
2022/07/08 06:24:00;;;;;;;;;3.50;3.50;;;;;17.91;53.73;103044.81;2404823;28;45324;-82
2022/07/08 06:25:11;;;;;;;;;4.00;3.00;;;;;17.94;53.89;103045.63;2413238;28;45452;-82
2022/07/08 06:26:21;;;;;;;;;5.25;3.75;;;;;17.98;53.69;103051.72;2411205;28;45308;-82
2022/07/08 06:27:31;;;;;;;;;4.50;4.50;;;;;18.04;53.63;103051.56;2404325;28;47154;-82
2022/07/08 06:28:42;;;;;;;;;4.75;3.75;;;;;18.06;53.26;103044.41;2414371;28;45403;-82
2022/07/08 06:29:52;;;;;;;;;4.00;2.25;;;;;18.09;53.24;103054.09;2418693;28;46166;-81
2022/07/08 06:31:03;;;;;;;;;5.25;3.00;;;;;18.10;53.14;103045.19;2413438;28;45399;-82
2022/07/08 06:32:14;;;;;;;;;4.25;4.25;;;;;18.10;53.54;103047.84;2412055;28;45249;-81
2022/07/08 06:33:25;;;;;;;;;5.50;3.25;;;;;18.14;53.55;103051.28;2410772;28;44743;-81
2022/07/08 06:34:35;;;;;;;;;5.75;4.25;;;;;18.15;53.29;103042.41;2415062;28;45332;-82
2022/07/08 06:35:45;;;;;;;;;3.00;3.00;;;;;18.17;52.98;103052.09;2412043;28;45266;-82
2022/07/08 06:36:56;;;;;;;;;5.00;3.75;;;;;18.21;53.56;103048.47;2411205;28;47302;-82
2022/07/08 06:38:06;;;;;;;;;7.00;5.00;;;;;18.25;53.37;103054.53;2414314;28;45272;-82
2022/07/08 06:39:16;;;;;;;;;3.50;3.00;;;;;18.30;53.24;103062.41;2416173;28;45447;-82
2022/07/08 06:40:27;;;;;;;;;5.75;4.50;;;;;18.30;52.31;103062.41;2401406;28;45388;-81
2022/07/08 06:41:37;;;;;;;;;5.75;5.00;;;;;18.27;53.13;103057.19;2406276;28;45682;-82
2022/07/08 06:42:49;;;;;;;;;8.00;5.00;;;;;18.27;52.43;103055.38;2415136;28;45274;-82
2022/07/08 06:43:59;;;;;;;;;6.25;3.00;;;;;18.27;52.58;103062.50;2414614;28;46295;-81
2022/07/08 06:45:10;;;;;;;;;6.00;5.00;;;;;18.26;52.76;103061.63;2412203;28;45376;-82
2022/07/08 06:46:20;;;;;;;;;6.25;5.75;;;;;18.26;52.54;103060.75;2411853;28;45978;-82
2022/07/08 06:47:31;;;;;;;;;6.50;4.00;;;;;18.26;52.61;103061.63;2411430;28;45361;-81
2022/07/08 06:48:41;;;;;;;;;5.50;4.25;;;;;18.25;52.56;103064.34;2410637;28;46374;-81
2022/07/08 06:49:53;;;;;;;;;7.75;5.25;;;;;18.26;52.84;103066.06;2412735;28;45329;-82
2022/07/08 06:51:03;;;;;;;;;9.00;5.75;;;;;18.29;52.34;103058.00;2417742;28;45323;-79
2022/07/08 06:52:13;;;;;;;;;9.25;6.00;;;;;18.32;52.68;103060.59;2419271;28;44720;-77
2022/07/08 06:53:25;;;;;;;;;8.75;5.25;;;;;18.33;52.35;103057.88;2421562;28;45261;-77
2022/07/08 06:54:35;;;;;;;;;5.50;4.00;;;;;18.36;52.67;103056.91;2412556;28;45227;-77
2022/07/08 06:55:45;;;;;;;;;5.00;5.00;;;;;18.40;52.12;103063.00;2411462;28;46482;-77
2022/07/08 06:56:56;;;;;;;;;7.00;6.00;;;;;18.42;52.02;103058.53;2411963;28;45242;-77
2022/07/08 06:58:06;;;;;;;;;5.00;4.25;;;;;18.44;52.38;103064.69;2411592;28;45383;-77
2022/07/08 06:59:16;;;;;;;;;4.25;4.25;;;;;18.45;51.95;103058.41;2412875;28;44812;-77
2022/07/08 07:00:27;;;;;;;;;10.25;5.25;;;;;18.49;52.46;103061.88;2414470;28;45259;-77
2022/07/08 07:01:38;;;;;;;;;4.25;4.25;;;;;18.51;52.47;103057.38;2410858;28;44710;-77
2022/07/08 07:02:49;;;;;;;;;4.75;4.25;;;;;18.55;52.12;103067.00;2409088;28;45411;-77
2022/07/08 07:04:00;;;;;;;;;7.00;4.75;;;;;18.56;52.27;103052.78;2411315;28;44718;-77
2022/07/08 07:05:10;;;;;;;;;7.75;5.00;;;;;18.61;52.30;103057.97;2417829;28;45332;-77
2022/07/08 07:06:20;;;;;;;;;8.25;6.00;;;;;18.63;51.89;103058.78;2421440;28;44714;-77
2022/07/08 07:07:31;;;;;;;;;5.00;4.75;;;;;18.66;52.10;103056.03;2418684;28;45356;-77
2022/07/08 07:08:42;;;;;;;;;7.00;5.50;;;;;18.69;52.56;103063.94;2412250;28;44926;-77
2022/07/08 07:09:52;;;;;;;;;7.00;5.75;;;;;18.70;51.83;103051.47;2411867;28;45299;-77
2022/07/08 07:11:02;;;;;;;;;4.75;4.75;;;;;18.73;51.98;103054.06;2420055;28;45365;-77
2022/07/08 07:12:14;;;;;;;;;4.50;4.50;;;;;18.75;51.82;103060.19;2414479;28;45391;-78
2022/07/08 07:13:25;;;;;;;;;8.50;5.25;;;;;18.76;51.64;103061.97;2412023;28;45297;-79
2022/07/08 07:14:35;;;;;;;;;5.50;4.75;;;;;18.76;51.52;103064.63;2411896;28;45167;-78
2022/07/08 07:15:46;;;;;;;;;10.75;7.00;;;;;18.76;51.51;103061.97;2412343;28;45246;-78
2022/07/08 07:16:56;;;;;;;;;6.75;5.50;;;;;18.76;51.26;103059.28;2412413;28;45308;-78
2022/07/08 07:18:08;;;;;;;;;5.25;5.00;;;;;18.80;51.42;103065.38;2411387;28;45169;-78
2022/07/08 07:19:19;;;;;;;;;9.25;6.75;;;;;18.79;51.45;103067.19;2411318;28;46351;-78
2022/07/08 07:20:29;;;;;;;;;5.75;5.50;;;;;18.78;51.66;103058.31;2417337;28;45492;-78
2022/07/08 07:21:39;;;;;;;;;7.00;6.25;;;;;18.82;51.82;103059.09;2421609;28;46366;-78
2022/07/08 07:22:50;;;;;;;;;5.75;5.75;;;;;18.82;51.16;103061.75;2423264;28;44600;-78
2022/07/08 07:24:00;;;;;;;;;5.00;5.00;;;;;18.83;51.24;103055.50;2422906;28;45435;-78
2022/07/08 07:25:11;;;;;;;;;6.00;5.00;;;;;18.84;51.28;103061.72;2423053;28;45608;-78
2022/07/08 07:26:21;;;;;;;;;3.75;3.50;;;;;18.83;50.68;103066.16;2422602;28;45438;-78
2022/07/08 07:27:31;;;;;;;;;7.50;5.00;;;;;18.83;51.25;103063.50;2423189;28;45227;-78
2022/07/08 07:28:42;;;;;;;;;5.75;5.00;;;;;18.84;51.30;103065.25;2415193;28;46633;-78
2022/07/08 07:29:52;;;;;;;;;5.25;5.00;;;;;18.85;51.08;103064.31;2413640;28;44721;-78
2022/07/08 07:31:03;;;;;;;;;5.25;4.50;;;;;18.86;51.22;103066.09;2422687;28;45361;-78
2022/07/08 07:32:13;;;;;;;;;5.00;4.00;;;;;18.87;50.90;103054.50;2423085;28;45348;-78
2022/07/08 07:33:24;;;;;;;;;5.25;4.00;;;;;18.89;51.12;103059.75;2413706;28;46183;-78
2022/07/08 07:34:34;;;;;;;;;5.75;5.00;;;;;18.92;50.74;103067.66;2418651;28;45261;-78
2022/07/08 07:35:44;;;;;;;;;8.00;5.00;;;;;18.94;50.41;103070.31;2422920;28;46252;-78
2022/07/08 07:36:55;;;;;;;;;6.25;4.00;;;;;18.94;50.52;103064.97;2423184;28;45276;-78
2022/07/08 07:38:05;;;;;;;;;4.50;4.25;;;;;18.95;50.76;103064.03;2420865;28;45482;-78
2022/07/08 07:39:15;;;;;;;;;3.50;3.25;;;;;18.97;50.82;103063.06;2413588;28;45186;-78
2022/07/08 07:40:26;;;;;;;;;9.25;6.25;;;;;18.97;50.29;103065.72;2420468;28;46207;-79
2022/07/08 07:41:37;;;;;;;;;5.50;4.00;;;;;18.99;50.58;103065.66;2414200;28;45209;-78
2022/07/08 07:42:47;;;;;;;;;3.25;3.25;;;;;18.99;51.25;103061.22;2416096;28;45637;-78
2022/07/08 07:43:58;;;;;;;;;6.00;4.50;;;;;19.00;49.98;103064.75;2423093;28;44662;-78
2022/07/08 07:45:08;;;;;;;;;7.75;4.00;;;;;19.02;50.66;103065.56;2414136;28;45289;-79
2022/07/08 07:46:19;;;;;;;;;4.75;4.00;;;;;19.01;50.62;103063.84;2413410;28;45428;-78
2022/07/08 07:47:29;;;;;;;;;7.00;5.00;;;;;19.04;50.58;103062.88;2413222;28;45379;-78
2022/07/08 07:48:40;;;;;;;;;2.00;0.50;;;;;19.04;50.24;103068.22;2413037;28;45273;-78
2022/07/08 07:49:50;;;;;;;;;8.00;4.00;;;;;19.05;50.55;103065.50;2415722;28;45427;-79
2022/07/08 07:51:01;;;;;;;;;6.75;6.50;;;;;19.08;50.00;103077.84;2422931;28;45285;-78
2022/07/08 07:52:11;;;;;;;;;5.50;5.00;;;;;19.09;50.25;103077.78;2422706;28;46445;-78
2022/07/08 07:53:23;;;;;;;;;5.50;4.50;;;;;19.06;50.36;103075.22;2422803;28;44619;-79
2022/07/08 07:54:33;;;;;;;;;7.00;5.25;;;;;19.08;50.25;103070.72;2412367;28;46289;-78
2022/07/08 07:55:44;;;;;;;;;6.00;5.00;;;;;19.10;50.64;103071.53;2408019;28;45547;-78
2022/07/08 07:56:54;;;;;;;;;8.50;5.25;;;;;19.11;49.91;103065.28;2412792;28;46259;-78
2022/07/08 07:58:04;;;;;;;;;6.25;4.50;;;;;19.14;49.90;103068.78;2415576;28;44668;-78
2022/07/08 07:59:15;;;;;;;;;4.50;4.50;;;;;19.16;50.32;103069.59;2413178;28;45253;-78
2022/07/08 08:00:26;;;;;;;;;6.00;4.25;;;;;19.17;50.15;103063.34;2420030;28;45213;-78
2022/07/08 08:01:36;;;;;;;;;5.00;4.25;;;;;19.17;50.09;103053.59;2422687;28;45328;-78
2022/07/08 08:02:46;;;;;;;;;5.50;4.00;;;;;19.19;50.57;103062.41;2422981;28;45209;-78
2022/07/08 08:03:57;;;;;;;;;5.00;5.00;;;;;19.23;50.16;103053.41;2421912;28;46287;-78
2022/07/08 08:05:11;;;;;;;;;6.50;3.00;;;;;19.26;49.62;103047.06;2421781;28;45300;-78
2022/07/08 08:06:21;;;;;;;;;4.50;3.50;;;;;19.27;49.57;103048.81;2422226;28;45477;-78
2022/07/08 08:07:32;;;;;;;;;7.50;6.00;;;;;19.29;49.95;103054.09;2422864;28;45217;-78
2022/07/08 08:08:42;;;;;;;;;6.00;4.00;;;;;19.31;50.15;103055.78;2416179;28;45409;-78
2022/07/08 08:09:53;;;;;;;;;5.25;5.00;;;;;19.33;49.47;103056.59;2412912;28;45262;-78
2022/07/08 08:11:03;;;;;;;;;9.50;6.00;;;;;19.37;48.97;103056.50;2413678;28;46071;-78
2022/07/08 08:12:14;;;;;;;;;6.00;5.00;;;;;19.36;49.48;103054.78;2422882;28;45233;-79
2022/07/08 08:13:24;;;;;;;;;8.00;5.50;;;;;19.37;49.85;103056.50;2422632;28;45268;-79
2022/07/08 08:14:34;;;;;;;;;4.50;3.50;;;;;19.38;49.70;103050.25;2422782;28;44740;-78
2022/07/08 08:15:45;;;;;;;;;5.00;4.50;;;;;19.41;49.85;103050.16;2422588;28;45237;-79
2022/07/08 08:16:56;;;;;;;;;5.75;5.75;;;;;19.41;49.84;103052.84;2417754;28;44598;-78
2022/07/08 08:18:06;;;;;;;;;6.00;5.50;;;;;19.41;49.16;103059.00;2413883;28;45257;-78
2022/07/08 08:19:16;;;;;;;;;6.50;4.75;;;;;19.42;49.58;103051.91;2422868;28;45162;-78
2022/07/08 08:20:29;;;;;;;;;7.00;5.50;;;;;19.41;49.68;103056.34;2422522;28;46195;-78
2022/07/08 08:21:39;;;;;;;;;7.00;5.25;;;;;19.42;49.59;103062.56;2417558;28;44719;-78
2022/07/08 08:22:49;;;;;;;;;6.00;6.00;;;;;19.44;49.22;103060.72;2413931;28;45313;-78
2022/07/08 08:24:00;;;;;;;;;6.00;4.75;;;;;19.45;49.49;103062.47;2422780;28;45361;-78
2022/07/08 08:25:10;;;;;;;;;6.25;5.00;;;;;19.45;48.91;103055.34;2422520;28;45392;-79
2022/07/08 08:26:22;;;;;;;;;8.00;6.00;;;;;19.45;49.47;103052.69;2414022;28;44710;-78
2022/07/08 08:27:33;;;;;;;;;10.75;4.25;;;;;19.49;49.60;103053.44;2412865;28;45353;-79
2022/07/08 08:28:44;;;;;;;;;5.25;5.25;;;;;19.52;49.34;103060.44;2413379;28;44637;-78
2022/07/08 08:29:54;;;;;;;;;5.50;3.00;;;;;19.53;48.73;103056.88;2419758;28;45535;-79
2022/07/08 08:31:04;;;;;;;;;9.00;6.00;;;;;19.52;49.34;103056.00;2418061;28;45470;-78
2022/07/08 08:32:15;;;;;;;;;6.50;6.00;;;;;19.54;49.05;103053.25;2412980;28;46458;-78
2022/07/08 08:33:25;;;;;;;;;6.00;5.00;;;;;19.58;49.22;103051.38;2419337;28;45218;-78
2022/07/08 08:34:35;;;;;;;;;6.25;5.00;;;;;19.62;49.04;103058.34;2422425;28;46661;-78
2022/07/08 08:35:46;;;;;;;;;6.75;6.25;;;;;19.64;48.67;103048.47;2422637;28;45213;-79
2022/07/08 08:36:56;;;;;;;;;6.00;5.00;;;;;19.66;48.63;103049.28;2422471;28;45282;-78
2022/07/08 08:38:07;;;;;;;;;7.25;5.25;;;;;19.69;48.79;103046.53;2422581;28;45545;-78
2022/07/08 08:39:17;;;;;;;;;5.25;5.00;;;;;19.70;48.75;103040.28;2419993;28;46189;-78
2022/07/08 08:40:29;;;;;;;;;9.00;5.00;;;;;19.76;48.69;103045.38;2412959;28;44529;-79
2022/07/08 08:41:41;;;;;;;;;5.50;5.50;;;;;19.79;48.60;103044.41;2421162;28;45527;-78
2022/07/08 08:42:51;;;;;;;;;9.25;8.00;;;;;19.82;48.50;103032.75;2419110;28;44698;-78
2022/07/08 08:44:02;;;;;;;;;7.50;7.50;;;;;19.86;48.56;103039.72;2412654;28;45558;-78
2022/07/08 08:45:12;;;;;;;;;6.00;6.00;;;;;19.87;48.63;103037.00;2419303;28;45296;-78
2022/07/08 08:46:23;;;;;;;;;10.00;5.00;;;;;19.91;48.01;103037.75;2421791;28;46373;-78
2022/07/08 08:47:36;;;;;;;;;6.00;6.00;;;;;19.94;48.34;103034.97;2422495;28;45146;-78
2022/07/08 08:48:47;;;;;;;;;6.00;5.00;;;;;19.95;48.15;103031.38;2412489;28;46276;-78
2022/07/08 08:50:53;;;;;;;;;9.75;5.75;;;;;20.00;48.00;103032.06;2419029;28;44751;-78
2022/07/08 08:51:32;;;;;;;;;6.75;5.25;;;;;20.04;47.39;103032.84;2422199;28;45496;-78
2022/07/08 08:52:45;;;;;;;;;8.00;6.00;;;;;20.05;47.58;103031.91;2422558;28;45320;-79
2022/07/08 08:53:58;;;;;;;;;6.00;5.00;;;;;20.08;47.67;103033.59;2422428;28;46293;-78
2022/07/08 08:55:10;;;;;;;;;8.25;5.50;;;;;20.07;47.71;103024.72;2422373;28;45344;-79
2022/07/08 08:56:21;;;;;;;;;6.50;5.75;;;;;20.09;47.31;103028.22;2413820;28;46471;-79
2022/07/08 08:57:32;;;;;;;;;6.75;6.75;;;;;20.10;47.54;103019.25;2413103;28;44652;-78
2022/07/08 08:58:47;;;;;;;;;7.50;7.25;;;;;20.12;47.56;103027.25;2411271;28;47073;-78
2022/07/08 08:59:57;;;;;;;;;5.50;4.50;;;;;20.16;47.47;103030.66;2415737;28;45190;-78
2022/07/08 09:01:08;;;;;;;;;8.50;7.00;;;;;20.17;47.49;103019.06;2422205;28;45463;-78
2022/07/08 09:02:19;;;;;;;;;5.25;5.00;;;;;20.21;47.40;103023.34;2422535;28;45444;-79
2022/07/08 09:03:29;;;;;;;;;6.50;5.00;;;;;20.23;47.27;103024.16;2412596;28;46345;-78
2022/07/08 09:04:41;;;;;;;;;9.00;6.25;;;;;20.27;47.03;103017.78;2418200;28;45366;-78
2022/07/08 09:05:51;;;;;;;;;7.25;5.50;;;;;20.29;47.44;103020.41;2422329;28;45442;-78
2022/07/08 09:07:02;;;;;;;;;5.25;4.00;;;;;20.31;47.33;103016.75;2422406;28;45387;-78
2022/07/08 09:08:12;;;;;;;;;6.25;5.25;;;;;20.36;47.05;103016.56;2422126;28;46364;-78
2022/07/08 09:09:23;;;;;;;;;5.50;5.00;;;;;20.37;47.09;103012.97;2422491;28;44685;-78
2022/07/08 09:10:34;;;;;;;;;10.00;6.00;;;;;20.40;46.77;103011.97;2421936;28;45261;-78
2022/07/08 09:11:44;;;;;;;;;7.25;6.00;;;;;20.43;45.90;103011.84;2420842;28;45289;-79
2022/07/08 09:13:16;;;;;;;;;5.25;4.25;;;;;20.46;46.34;103017.94;2411651;28;45434;-78
2022/07/08 09:14:26;;;;;;;;;7.75;6.00;;;;;20.45;46.59;103016.19;2413192;28;44509;-78
2022/07/08 09:15:38;;;;;;;;;6.00;5.25;;;;;20.49;45.90;103011.63;2422102;28;45398;-78
2022/07/08 09:17:10;;;;;;;;;6.75;5.25;;;;;20.50;45.67;103004.44;2422245;28;44687;-79
2022/07/08 09:18:25;;;;;;;;;7.50;6.25;;;;;20.49;45.90;103008.06;2422117;28;45489;-79
2022/07/08 09:19:37;;;;;;;;;5.75;5.25;;;;;20.49;46.41;103008.94;2411930;28;45447;-78
2022/07/08 09:20:48;;;;;;;;;7.25;7.25;;;;;20.51;45.64;103008.88;2404705;28;45354;-78
2022/07/08 09:21:59;;;;;;;;;9.00;6.25;;;;;20.51;45.85;103014.22;2407770;28;45249;-79
2022/07/08 09:23:29;;;;;;;;;4.00;4.00;;;;;20.53;46.18;102994.53;2422124;28;45403;-78
2022/07/08 09:24:40;;;;;;;;;7.50;6.25;;;;;20.55;46.19;102994.47;2422425;28;45359;-79
2022/07/08 09:25:53;;;;;;;;;9.25;7.00;;;;;20.57;45.99;103000.59;2421717;28;46452;-78
2022/07/08 09:27:08;;;;;;;;;6.00;6.00;;;;;20.58;45.87;102994.34;2422211;28;45225;-78
2022/07/08 09:28:38;;;;;;;;;6.00;4.00;;;;;20.63;45.58;103003.06;2422014;28;45421;-78
2022/07/08 09:30:00;;;;;;;;;5.00;5.00;;;;;20.63;45.55;102996.84;2422141;28;44736;-78
2022/07/08 09:31:12;;;;;;;;;7.25;6.25;;;;;20.64;45.57;102999.44;2412978;28;45498;-79
2022/07/08 09:32:23;;;;;;;;;8.75;5.75;;;;;20.66;45.72;103002.94;2418054;28;45328;-78
2022/07/08 09:33:35;;;;;;;;;9.00;6.75;;;;;20.71;45.76;102996.53;2422059;28;45459;-79
2022/07/08 09:34:45;;;;;;;;;9.00;5.75;;;;;20.75;45.91;102995.47;2422298;28;45220;-79
2022/07/08 09:36:00;;;;;;;;;6.75;6.50;;;;;20.78;45.67;102998.88;2413696;28;45398;-78
2022/07/08 09:37:15;;;;;;;;;9.00;6.25;;;;;20.85;45.29;103003.97;2412181;28;44771;-79
2022/07/08 09:38:27;;;;;;;;;7.25;5.25;;;;;20.89;45.04;102998.44;2416705;28;46225;-78
2022/07/08 09:39:38;;;;;;;;;6.75;5.00;;;;;20.94;45.29;103000.91;2422063;28;45234;-79
2022/07/08 09:41:05;;;;;;;;;7.00;6.00;;;;;20.95;44.41;103001.78;2415639;28;45445;-78
2022/07/08 09:42:18;;;;;;;;;5.50;4.00;;;;;20.96;43.92;102995.53;2416893;28;45207;-78
2022/07/08 09:43:30;;;;;;;;;6.25;5.25;;;;;20.96;44.43;102995.53;2421899;28;46553;-78
2022/07/08 09:44:41;;;;;;;;;5.25;4.75;;;;;20.96;44.76;102992.84;2421239;28;44679;-79
2022/07/08 09:45:52;;;;;;;;;6.50;6.25;;;;;20.97;44.76;102995.44;2421930;28;45558;-79
2022/07/08 09:47:17;;;;;;;;;8.50;6.00;;;;;21.01;44.63;102993.56;2422204;28;45354;-79
2022/07/08 09:48:28;;;;;;;;;8.25;7.00;;;;;21.02;45.08;102989.94;2421962;28;46366;-78
2022/07/08 09:49:41;;;;;;;;;5.00;4.00;;;;;21.06;44.45;102982.66;2422224;28;45358;-78
2022/07/08 09:50:51;;;;;;;;;11.00;5.75;;;;;21.07;44.29;102987.06;2414996;28;46354;-78
2022/07/08 09:52:02;;;;;;;;;6.25;5.25;;;;;21.11;44.51;102989.53;2412798;28;45226;-78
2022/07/08 09:53:20;;;;;;;;;8.00;7.00;;;;;21.12;44.13;102983.28;2421862;28;45605;-78
2022/07/08 09:54:31;;;;;;;;;9.00;7.50;;;;;21.13;44.83;102992.16;2422000;28;45268;-79
2022/07/08 09:55:43;;;;;;;;;9.00;6.75;;;;;21.16;44.65;102992.06;2421476;28;45585;-79
2022/07/08 09:57:05;;;;;;;;;6.25;4.25;;;;;21.19;44.48;102994.56;2411427;28;44737;-78
2022/07/08 09:58:15;;;;;;;;;7.00;6.00;;;;;21.21;44.47;102992.69;2416186;28;45550;-78
2022/07/08 09:59:27;;;;;;;;;8.25;6.00;;;;;21.23;44.08;102992.66;2414420;28;45222;-79
2022/07/08 10:00:38;;;;;;;;;7.50;7.00;;;;;21.23;43.97;102990.84;2404365;28;46502;-78
2022/07/08 10:01:53;;;;;;;;;7.25;7.25;;;;;21.25;44.20;102994.31;2412564;28;44699;-78
2022/07/08 10:03:04;;;;;;;;;7.75;7.00;;;;;21.27;44.54;102999.59;2417328;28;45348;-78
2022/07/08 10:04:16;;;;;;;;;6.75;6.50;;;;;21.31;44.13;103001.19;2420957;28;45269;-78
2022/07/08 10:05:27;;;;;;;;;3.50;3.50;;;;;21.33;43.91;102998.47;2421866;28;45303;-78
2022/07/08 10:06:37;;;;;;;;;10.75;5.50;;;;;21.38;42.44;103000.94;2421973;28;45213;-78
2022/07/08 10:07:47;;;;;;;;;6.75;5.50;;;;;21.37;41.79;102997.38;2421842;28;45468;-78
2022/07/08 10:08:58;;;;;;;;;5.75;5.00;;;;;21.39;43.00;102990.16;2418555;28;45209;-78
2022/07/08 10:10:08;;;;;;;;;3.25;3.25;;;;;21.41;43.26;102998.16;2411961;28;46267;-78
2022/07/08 10:11:19;;;;;;;;;5.75;5.25;;;;;21.45;43.97;102994.38;2412687;28;45262;-78
2022/07/08 10:12:32;;;;;;;;;8.25;7.00;;;;;21.50;43.71;102989.72;2412296;28;46514;-78
2022/07/08 10:13:44;;;;;;;;;5.25;4.75;;;;;21.55;43.85;102990.38;2416553;28;45530;-78
2022/07/08 10:14:56;;;;;;;;;9.25;6.50;;;;;21.60;43.61;102990.16;2421702;28;45354;-78
2022/07/08 10:16:09;;;;;;;;;6.00;4.75;;;;;21.64;42.42;102994.44;2421952;28;45221;-78
2022/07/08 10:17:22;;;;;;;;;4.25;4.00;;;;;21.67;43.35;102990.75;2421680;28;45371;-78
2022/07/08 10:18:48;;;;;;;;;4.00;3.00;;;;;21.68;41.59;102989.84;2421932;28;45309;-78
2022/07/08 10:20:01;;;;;;;;;4.00;4.00;;;;;21.71;42.82;102984.31;2421927;28;45445;-79
2022/07/08 10:21:16;;;;;;;;;5.25;5.25;;;;;21.74;42.20;102988.66;2422003;28;45397;-78
2022/07/08 10:22:30;;;;;;;;;5.75;4.25;;;;;21.78;41.95;102987.59;2413198;28;45515;-78
2022/07/08 10:23:50;;;;;;;;;6.25;4.00;;;;;21.79;41.95;102982.19;2412102;28;45261;-79
2022/07/08 10:25:02;;;;;;;;;4.25;4.25;;;;;21.81;41.89;102980.28;2412179;28;45390;-78
2022/07/08 10:26:17;;;;;;;;;7.00;6.00;;;;;21.86;42.39;102985.47;2416729;28;44834;-78
2022/07/08 10:27:27;;;;;;;;;6.25;5.00;;;;;21.89;42.38;102984.47;2411362;28;45330;-79